createdAt,value
2018-06-29T00:00:29.612Z,0.00
2018-06-29T00:02:22.969Z,0.00
2018-06-29T00:03:22.831Z,0.00
2018-06-29T00:05:16.111Z,0.00
2018-06-29T00:06:16.051Z,0.00
2018-06-29T00:08:09.386Z,0.00
2018-06-29T00:09:09.290Z,0.00
2018-06-29T00:11:02.568Z,0.00
2018-06-29T00:12:02.509Z,0.00
2018-06-29T00:13:55.914Z,0.00
2018-06-29T00:14:55.731Z,0.00
2018-06-29T00:16:49.028Z,0.00
2018-06-29T00:17:48.949Z,0.00
2018-06-29T00:19:42.230Z,0.00
2018-06-29T00:20:42.168Z,0.00
2018-06-29T00:22:35.468Z,0.00
2018-06-29T00:23:35.387Z,0.00
2018-06-29T00:25:28.671Z,0.00
2018-06-29T00:26:28.609Z,0.00
2018-06-29T00:28:21.912Z,0.00
2018-06-29T00:29:21.831Z,0.00
2018-06-29T00:31:15.112Z,0.00
2018-06-29T00:32:15.051Z,0.00
2018-06-29T00:34:08.365Z,0.00
2018-06-29T00:35:08.285Z,0.00
2018-06-29T00:37:01.670Z,0.00
2018-06-29T00:38:01.505Z,0.00
2018-06-29T00:39:54.803Z,0.00
2018-06-29T00:40:54.724Z,0.00
2018-06-29T00:42:48.022Z,0.00
2018-06-29T00:43:47.943Z,0.00
2018-06-29T00:45:41.826Z,0.00
2018-06-29T00:46:41.165Z,0.00
2018-06-29T00:48:34.457Z,0.00
2018-06-29T00:49:34.376Z,0.00
2018-06-29T00:51:27.658Z,0.00
2018-06-29T00:52:27.595Z,0.00
2018-06-29T00:54:20.893Z,0.00
2018-06-29T00:55:20.871Z,0.00
2018-06-29T00:57:14.095Z,0.00
2018-06-29T00:58:14.034Z,0.00
2018-06-29T01:00:07.367Z,0.00
2018-06-29T01:01:07.286Z,0.00
2018-06-29T01:03:00.585Z,0.00
2018-06-29T01:04:00.507Z,0.00
2018-06-29T01:05:53.786Z,0.00
2018-06-29T01:06:53.724Z,0.00
2018-06-29T01:08:47.127Z,0.00
2018-06-29T01:09:46.942Z,0.00
2018-06-29T01:11:40.220Z,0.00
2018-06-29T01:12:40.160Z,0.00
2018-06-29T01:14:33.458Z,0.00
2018-06-29T01:15:33.380Z,0.00
2018-06-29T01:17:26.658Z,0.00
2018-06-29T01:18:26.596Z,0.00
2018-06-29T01:20:19.892Z,0.00
2018-06-29T01:21:19.813Z,0.00
2018-06-29T01:23:13.092Z,0.00
2018-06-29T01:24:13.032Z,0.00
2018-06-29T01:26:06.435Z,0.00
2018-06-29T01:27:06.247Z,0.00
2018-06-29T01:28:59.548Z,0.00
2018-06-29T01:29:59.469Z,0.00
2018-06-29T01:31:52.744Z,0.00
2018-06-29T01:32:52.683Z,0.00
2018-06-29T01:34:45.981Z,0.00
2018-06-29T01:35:45.901Z,0.00
2018-06-29T01:37:39.169Z,0.00
2018-06-29T01:38:39.108Z,0.00
2018-06-29T01:40:32.406Z,0.00
2018-06-29T01:41:32.350Z,0.00
2018-06-29T01:43:25.624Z,0.00
2018-06-29T01:44:25.543Z,0.00
2018-06-29T01:46:18.824Z,0.00
2018-06-29T01:47:18.760Z,0.00
2018-06-29T01:49:12.060Z,0.00
2018-06-29T01:50:11.976Z,0.00
2018-06-29T01:52:05.370Z,0.00
2018-06-29T01:53:05.282Z,0.00
2018-06-29T01:54:58.685Z,0.00
2018-06-29T01:55:58.500Z,0.00
2018-06-29T01:57:51.772Z,0.00
2018-06-29T01:58:51.708Z,0.00
2018-06-29T02:00:45.006Z,0.00
2018-06-29T02:01:44.924Z,0.00
2018-06-29T02:03:38.203Z,0.00
2018-06-29T02:04:38.140Z,0.00
2018-06-29T02:06:31.437Z,0.00
2018-06-29T02:07:31.360Z,0.00
2018-06-29T02:09:24.635Z,0.00
2018-06-29T02:10:24.576Z,0.00
2018-06-29T02:12:17.873Z,0.00
2018-06-29T02:13:17.790Z,0.00
2018-06-29T02:15:11.090Z,0.00
2018-06-29T02:16:11.011Z,0.00
2018-06-29T02:18:04.282Z,0.00
2018-06-29T02:19:04.219Z,0.00
2018-06-29T02:20:57.623Z,0.00
2018-06-29T02:21:57.436Z,0.00
2018-06-29T02:23:50.714Z,4.00
2018-06-29T02:24:50.655Z,4.00
2018-06-29T02:26:43.951Z,4.00
2018-06-29T02:27:43.930Z,4.00
2018-06-29T02:29:37.145Z,4.00
2018-06-29T02:30:37.138Z,0.00
2018-06-29T02:32:30.483Z,4.00
2018-06-29T02:33:30.299Z,4.00
2018-06-29T02:35:23.703Z,4.00
2018-06-29T02:36:23.517Z,4.00
2018-06-29T02:38:16.783Z,4.00
2018-06-29T02:39:16.722Z,8.00
2018-06-29T02:41:10.122Z,12.00
2018-06-29T02:42:09.937Z,12.00
2018-06-29T02:44:03.221Z,12.00
2018-06-29T02:45:03.151Z,16.00
2018-06-29T02:46:56.450Z,20.00
2018-06-29T02:47:56.368Z,20.00
2018-06-29T02:49:49.648Z,28.00
2018-06-29T02:50:49.583Z,28.00
2018-06-29T02:52:42.882Z,40.00
2018-06-29T02:53:42.799Z,44.00
2018-06-29T02:55:36.182Z,52.00
2018-06-29T02:56:36.014Z,56.00
2018-06-29T02:58:29.369Z,68.00
2018-06-29T02:59:29.284Z,76.00
2018-06-29T03:01:22.582Z,84.00
2018-06-29T03:02:22.502Z,96.00
2018-06-29T03:04:15.775Z,108.00
2018-06-29T03:05:15.713Z,120.00
2018-06-29T03:07:09.010Z,140.00
2018-06-29T03:08:08.928Z,144.00
2018-06-29T03:10:02.308Z,168.00
2018-06-29T03:11:02.149Z,180.00
2018-06-29T03:12:55.434Z,200.00
2018-06-29T03:13:55.348Z,216.00
2018-06-29T03:15:48.620Z,244.00
2018-06-29T03:16:48.556Z,260.00
2018-06-29T03:18:41.848Z,296.00
2018-06-29T03:19:41.768Z,308.00
2018-06-29T03:21:35.069Z,344.00
2018-06-29T03:22:34.988Z,360.00
2018-06-29T03:24:28.345Z,396.00
2018-06-29T03:25:28.281Z,416.00
2018-06-29T03:27:21.578Z,452.00
2018-06-29T03:28:21.494Z,472.00
2018-06-29T03:30:14.774Z,516.00
2018-06-29T03:31:14.708Z,532.00
2018-06-29T03:33:08.622Z,576.00
2018-06-29T03:34:07.925Z,596.00
2018-06-29T03:36:01.304Z,636.00
2018-06-29T03:37:01.127Z,656.00
2018-06-29T03:38:54.423Z,696.00
2018-06-29T03:39:54.340Z,720.00
2018-06-29T03:41:47.720Z,764.00
2018-06-29T03:42:47.553Z,784.00
2018-06-29T03:44:40.847Z,828.00
2018-06-29T03:45:40.766Z,848.00
2018-06-29T03:47:34.061Z,888.00
2018-06-29T03:48:33.978Z,912.00
2018-06-29T03:50:27.255Z,952.00
2018-06-29T03:51:27.194Z,972.00
2018-06-29T03:53:20.487Z,1016.00
2018-06-29T03:54:20.404Z,1032.00
2018-06-29T03:56:13.792Z,1072.00
2018-06-29T03:57:13.609Z,1096.00
2018-06-29T03:59:06.905Z,1136.00
2018-06-29T04:00:06.823Z,1156.00
2018-06-29T04:02:00.206Z,1196.00
2018-06-29T04:03:00.030Z,1212.00
2018-06-29T04:04:53.326Z,1248.00
2018-06-29T04:05:53.241Z,1268.00
2018-06-29T04:07:46.622Z,1300.00
2018-06-29T04:08:46.445Z,1320.00
2018-06-29T04:10:39.845Z,1360.00
2018-06-29T04:11:39.660Z,1376.00
2018-06-29T04:13:32.954Z,1408.00
2018-06-29T04:14:32.873Z,1428.00
2018-06-29T04:16:26.150Z,1452.00
2018-06-29T04:17:26.090Z,1472.00
2018-06-29T04:19:19.373Z,1504.00
2018-06-29T04:20:19.289Z,1516.00
2018-06-29T04:22:12.565Z,1544.00
2018-06-29T04:23:12.503Z,1556.00
2018-06-29T04:25:05.898Z,1584.00
2018-06-29T04:26:05.718Z,1596.00
2018-06-29T04:27:58.986Z,1620.00
2018-06-29T04:28:58.923Z,1636.00
2018-06-29T04:30:52.218Z,1664.00
2018-06-29T04:31:52.138Z,1672.00
2018-06-29T04:33:45.425Z,1692.00
2018-06-29T04:34:45.343Z,1708.00
2018-06-29T04:36:38.625Z,1732.00
2018-06-29T04:37:38.557Z,1744.00
2018-06-29T04:39:31.841Z,1768.00
2018-06-29T04:40:31.762Z,1776.00
2018-06-29T04:42:25.039Z,1800.00
2018-06-29T04:43:24.977Z,1812.00
2018-06-29T04:45:18.378Z,1824.00
2018-06-29T04:46:18.192Z,1832.00
2018-06-29T04:48:11.461Z,1860.00
2018-06-29T04:49:11.454Z,1868.00
2018-06-29T04:51:04.684Z,1876.00
2018-06-29T04:52:04.607Z,1880.00
2018-06-29T04:53:57.880Z,1888.00
2018-06-29T04:54:57.818Z,1896.00
2018-06-29T04:56:51.116Z,1904.00
2018-06-29T04:57:51.033Z,1912.00
2018-06-29T04:59:44.328Z,1936.00
2018-06-29T05:00:44.247Z,1948.00
2018-06-29T05:02:37.516Z,1960.00
2018-06-29T05:03:37.454Z,1964.00
2018-06-29T05:05:31.586Z,1984.00
2018-06-29T05:06:31.506Z,1996.00
2018-06-29T05:08:24.775Z,2000.00
2018-06-29T05:09:24.712Z,1996.00
2018-06-29T05:11:18.009Z,2020.00
2018-06-29T05:12:17.927Z,2028.00
2018-06-29T05:14:11.206Z,2036.00
2018-06-29T05:15:11.143Z,2044.00
2018-06-29T05:17:04.440Z,2060.00
2018-06-29T05:18:04.357Z,2068.00
2018-06-29T05:19:57.655Z,2084.00
2018-06-29T05:20:57.573Z,2084.00
2018-06-29T05:22:50.842Z,2104.00
2018-06-29T05:23:50.790Z,2108.00
2018-06-29T05:25:45.085Z,2104.00
2018-06-29T05:26:45.012Z,2124.00
2018-06-29T05:28:38.356Z,2152.00
2018-06-29T05:29:38.223Z,2160.00
2018-06-29T05:31:31.520Z,2180.00
2018-06-29T05:32:31.440Z,2196.00
2018-06-29T05:34:24.708Z,2196.00
2018-06-29T05:35:24.663Z,2200.00
2018-06-29T05:37:17.943Z,2204.00
2018-06-29T05:38:17.861Z,2208.00
2018-06-29T05:40:11.169Z,2216.00
2018-06-29T05:41:11.077Z,2224.00
2018-06-29T05:43:04.359Z,2232.00
2018-06-29T05:44:04.294Z,2244.00
2018-06-29T05:45:57.594Z,2264.00
2018-06-29T05:46:57.568Z,2268.00
2018-06-29T05:48:50.793Z,2284.00
2018-06-29T05:49:50.724Z,2288.00
2018-06-29T05:51:44.060Z,2292.00
2018-06-29T05:52:43.947Z,2296.00
2018-06-29T05:54:37.228Z,2292.00
2018-06-29T05:55:37.164Z,2300.00
2018-06-29T05:57:30.579Z,2312.00
2018-06-29T05:58:30.379Z,2316.00
2018-06-29T06:00:23.667Z,2320.00
2018-06-29T06:01:23.597Z,2332.00
2018-06-29T06:03:16.998Z,2348.00
2018-06-29T06:04:16.816Z,2368.00
2018-06-29T06:06:10.111Z,2464.00
2018-06-29T06:07:10.030Z,2528.00
2018-06-29T06:09:03.345Z,2684.00
2018-06-29T06:10:03.314Z,2804.00
2018-06-29T06:11:56.688Z,3168.00
2018-06-29T06:12:56.504Z,3424.00
2018-06-29T06:14:49.785Z,4764.00
2018-06-29T06:15:49.722Z,6900.00
2018-06-29T06:17:43.019Z,9520.00
2018-06-29T06:18:42.940Z,9736.00
2018-06-29T06:20:36.229Z,9536.00
2018-06-29T06:21:36.173Z,9440.00
2018-06-29T06:23:29.485Z,9048.00
2018-06-29T06:24:29.413Z,8928.00
2018-06-29T06:26:22.710Z,8876.00
2018-06-29T06:27:22.660Z,8960.00
2018-06-29T06:29:16.077Z,8956.00
2018-06-29T06:30:15.908Z,8904.00
2018-06-29T06:32:09.232Z,8496.00
2018-06-29T06:33:09.191Z,8476.00
2018-06-29T06:35:02.471Z,8332.00
2018-06-29T06:36:02.421Z,8224.00
2018-06-29T06:37:55.738Z,8100.00
2018-06-29T06:38:55.669Z,8036.00
2018-06-29T06:40:48.977Z,7956.00
2018-06-29T06:41:48.931Z,7856.00
2018-06-29T06:43:42.257Z,7716.00
2018-06-29T06:44:42.191Z,7632.00
2018-06-29T06:46:35.499Z,7592.00
2018-06-29T06:47:35.454Z,7540.00
2018-06-29T06:49:28.781Z,7428.00
2018-06-29T06:50:28.719Z,7424.00
2018-06-29T06:52:22.026Z,7344.00
2018-06-29T06:53:21.980Z,7316.00
2018-06-29T06:55:16.378Z,7240.00
2018-06-29T06:56:16.313Z,7200.00
2018-06-29T06:58:10.633Z,7128.00
2018-06-29T06:59:10.567Z,7108.00
2018-06-29T07:01:03.876Z,7068.00
2018-06-29T07:02:03.830Z,7048.00
2018-06-29T07:03:57.256Z,7024.00
2018-06-29T07:04:57.093Z,6992.00
2018-06-29T07:06:50.404Z,6956.00
2018-06-29T07:07:50.357Z,6944.00
2018-06-29T07:09:43.687Z,6924.00
2018-06-29T07:10:43.621Z,6884.00
2018-06-29T07:12:37.092Z,6840.00
2018-06-29T07:13:36.885Z,6836.00
2018-06-29T07:15:30.307Z,6816.00
2018-06-29T07:16:30.148Z,6824.00
2018-06-29T07:18:23.470Z,6828.00
2018-06-29T07:19:23.405Z,6868.00
2018-06-29T07:21:16.741Z,6836.00
2018-06-29T07:22:16.678Z,6816.00
2018-06-29T07:24:10.003Z,6772.00
2018-06-29T07:25:09.936Z,6772.00
2018-06-29T07:27:03.235Z,6800.00
2018-06-29T07:28:03.188Z,6816.00
2018-06-29T07:29:56.552Z,6884.00
2018-06-29T07:30:56.450Z,6904.00
2018-06-29T07:32:49.748Z,6992.00
2018-06-29T07:33:49.700Z,7020.00
2018-06-29T07:35:43.027Z,7092.00
2018-06-29T07:36:42.961Z,7132.00
2018-06-29T07:38:36.396Z,7236.00
2018-06-29T07:39:36.315Z,7308.00
2018-06-29T07:41:29.645Z,7456.00
2018-06-29T07:42:29.579Z,7552.00
2018-06-29T07:44:22.927Z,7696.00
2018-06-29T07:45:22.841Z,7756.00
2018-06-29T07:47:16.146Z,7860.00
2018-06-29T07:48:16.102Z,7900.00
2018-06-29T07:50:09.523Z,8036.00
2018-06-29T07:51:09.363Z,8104.00
2018-06-29T07:53:02.671Z,8148.00
2018-06-29T07:54:02.626Z,8172.00
2018-06-29T07:55:55.954Z,8224.00
2018-06-29T07:56:55.889Z,8280.00
2018-06-29T07:58:49.307Z,8344.00
2018-06-29T07:59:49.158Z,8348.00
2018-06-29T08:01:42.573Z,8360.00
2018-06-29T08:02:42.486Z,8356.00
2018-06-29T08:04:35.741Z,8284.00
2018-06-29T08:05:35.696Z,8224.00
2018-06-29T08:07:29.121Z,8256.00
2018-06-29T08:08:28.957Z,8180.00
2018-06-29T08:10:22.374Z,7956.00
2018-06-29T08:11:22.310Z,7932.00
2018-06-29T08:13:15.620Z,7772.00
2018-06-29T08:14:15.574Z,7716.00
2018-06-29T08:16:08.900Z,7592.00
2018-06-29T08:17:08.832Z,7548.00
2018-06-29T08:19:02.137Z,7592.00
2018-06-29T08:20:02.089Z,7620.00
2018-06-29T08:21:55.416Z,7648.00
2018-06-29T08:22:55.346Z,7584.00
2018-06-29T08:24:49.655Z,7548.00
2018-06-29T08:25:49.604Z,7552.00
2018-06-29T08:27:42.917Z,7496.00
2018-06-29T08:28:42.849Z,7396.00
2018-06-29T08:30:37.179Z,7356.00
2018-06-29T08:31:37.104Z,7296.00
2018-06-29T08:33:30.406Z,7264.00
2018-06-29T08:34:30.353Z,7216.00
2018-06-29T08:36:24.821Z,7124.00
2018-06-29T08:37:24.607Z,7108.00
2018-06-29T08:39:18.005Z,7152.00
2018-06-29T08:40:17.856Z,7136.00
2018-06-29T08:42:11.174Z,7172.00
2018-06-29T08:43:11.103Z,7156.00
2018-06-29T08:45:04.406Z,7236.00
2018-06-29T08:46:04.356Z,7212.00
2018-06-29T08:47:57.665Z,7144.00
2018-06-29T08:48:57.592Z,7164.00
2018-06-29T08:50:51.994Z,7068.00
2018-06-29T08:51:51.840Z,7100.00
2018-06-29T08:53:45.157Z,7112.00
2018-06-29T08:54:45.087Z,7136.00
2018-06-29T08:56:38.413Z,7164.00
2018-06-29T08:57:38.334Z,7168.00
2018-06-29T08:59:31.632Z,7236.00
2018-06-29T09:00:31.582Z,7172.00
2018-06-29T09:02:24.995Z,7180.00
2018-06-29T09:03:24.830Z,7216.00
2018-06-29T09:05:18.126Z,7248.00
2018-06-29T09:06:18.075Z,7228.00
2018-06-29T09:08:11.398Z,7240.00
2018-06-29T09:09:11.323Z,7268.00
2018-06-29T09:11:04.771Z,7272.00
2018-06-29T09:12:04.572Z,7264.00
2018-06-29T09:13:57.887Z,7280.00
2018-06-29T09:14:57.818Z,7300.00
2018-06-29T09:16:51.149Z,7256.00
2018-06-29T09:17:51.065Z,7204.00
2018-06-29T09:19:44.363Z,7376.00
2018-06-29T09:20:44.312Z,7416.00
2018-06-29T09:22:37.630Z,7468.00
2018-06-29T09:23:37.559Z,7468.00
2018-06-29T09:25:30.860Z,7460.00
2018-06-29T09:26:30.809Z,7476.00
2018-06-29T09:28:24.121Z,7464.00
2018-06-29T09:29:24.054Z,7444.00
2018-06-29T09:31:17.447Z,7436.00
2018-06-29T09:32:17.298Z,7400.00
2018-06-29T09:34:10.619Z,7444.00
2018-06-29T09:35:10.547Z,7436.00
2018-06-29T09:37:03.847Z,7452.00
2018-06-29T09:38:03.793Z,7428.00
2018-06-29T09:39:57.210Z,7396.00
2018-06-29T09:40:57.063Z,7384.00
2018-06-29T09:42:50.381Z,7412.00
2018-06-29T09:43:50.310Z,7668.00
2018-06-29T09:45:43.611Z,7408.00
2018-06-29T09:46:43.562Z,7448.00
2018-06-29T09:48:36.873Z,7428.00
2018-06-29T09:49:36.803Z,7420.00
2018-06-29T09:51:30.102Z,7480.00
2018-06-29T09:52:30.053Z,7428.00
2018-06-29T09:54:23.372Z,7520.00
2018-06-29T09:55:23.302Z,7512.00
2018-06-29T09:57:16.602Z,7528.00
2018-06-29T09:58:16.555Z,7620.00
2018-06-29T10:00:09.872Z,7456.00
2018-06-29T10:01:09.916Z,7500.00
2018-06-29T10:03:03.126Z,7492.00
2018-06-29T10:04:03.057Z,7460.00
2018-06-29T10:05:56.358Z,7504.00
2018-06-29T10:06:56.308Z,7528.00
2018-06-29T10:08:49.632Z,7512.00
2018-06-29T10:09:49.560Z,7504.00
2018-06-29T10:11:42.864Z,7484.00
2018-06-29T10:12:42.813Z,7364.00
2018-06-29T10:14:36.135Z,7472.00
2018-06-29T10:15:36.067Z,7476.00
2018-06-29T10:17:30.467Z,7508.00
2018-06-29T10:18:30.322Z,7480.00
2018-06-29T10:20:23.644Z,7440.00
2018-06-29T10:21:23.578Z,7412.00
2018-06-29T10:23:16.880Z,7360.00
2018-06-29T10:24:16.873Z,7388.00
2018-06-29T10:26:11.173Z,7344.00
2018-06-29T10:27:11.110Z,7280.00
2018-06-29T10:29:04.429Z,7252.00
2018-06-29T10:30:04.362Z,7276.00
2018-06-29T10:31:57.668Z,7260.00
2018-06-29T10:32:57.620Z,7260.00
2018-06-29T10:34:50.942Z,7296.00
2018-06-29T10:35:50.875Z,7308.00
2018-06-29T10:37:44.277Z,7284.00
2018-06-29T10:38:44.140Z,7284.00
2018-06-29T10:40:37.449Z,7264.00
2018-06-29T10:41:37.380Z,7236.00
2018-06-29T10:43:30.685Z,7236.00
2018-06-29T10:44:30.639Z,7244.00
2018-06-29T10:46:23.963Z,7196.00
2018-06-29T10:47:23.899Z,7208.00
2018-06-29T10:49:17.201Z,7180.00
2018-06-29T10:50:17.157Z,7168.00
2018-06-29T10:52:10.479Z,7280.00
2018-06-29T10:53:10.411Z,7288.00
2018-06-29T10:55:03.741Z,7228.00
2018-06-29T10:56:03.672Z,7224.00
2018-06-29T10:57:57.073Z,7164.00
2018-06-29T10:58:56.917Z,7164.00
2018-06-29T11:00:50.335Z,7088.00
2018-06-29T11:01:50.174Z,7052.00
2018-06-29T11:03:43.478Z,6984.00
2018-06-29T11:04:43.430Z,7016.00
2018-06-29T11:06:36.753Z,6932.00
2018-06-29T11:07:36.688Z,6888.00
2018-06-29T11:09:29.990Z,6868.00
2018-06-29T11:10:29.943Z,6852.00
2018-06-29T11:12:23.267Z,6848.00
2018-06-29T11:13:23.199Z,6824.00
2018-06-29T11:15:16.543Z,6752.00
2018-06-29T11:16:16.473Z,6672.00
2018-06-29T11:18:09.779Z,6732.00
2018-06-29T11:19:09.732Z,6656.00
2018-06-29T11:21:03.057Z,6660.00
2018-06-29T11:22:03.017Z,6608.00
2018-06-29T11:23:56.354Z,6584.00
2018-06-29T11:24:56.305Z,6536.00
2018-06-29T11:26:49.627Z,6396.00
2018-06-29T11:27:49.558Z,6344.00
2018-06-29T11:29:42.863Z,6264.00
2018-06-29T11:30:42.813Z,6252.00
2018-06-29T11:32:36.144Z,6036.00
2018-06-29T11:33:36.069Z,5940.00
2018-06-29T11:35:29.397Z,5772.00
2018-06-29T11:36:29.325Z,5716.00
2018-06-29T11:38:22.620Z,5640.00
2018-06-29T11:39:22.572Z,5632.00
2018-06-29T11:41:15.904Z,5568.00
2018-06-29T11:42:15.836Z,5512.00
2018-06-29T11:44:09.152Z,5524.00
2018-06-29T11:45:09.090Z,5508.00
2018-06-29T11:47:02.507Z,5480.00
2018-06-29T11:48:02.344Z,5384.00
2018-06-29T11:49:55.645Z,5312.00
2018-06-29T11:50:55.597Z,5304.00
2018-06-29T11:52:48.916Z,5272.00
2018-06-29T11:53:48.848Z,5248.00
2018-06-29T11:55:42.183Z,5240.00
2018-06-29T11:56:42.098Z,5228.00
2018-06-29T11:58:35.387Z,5236.00
2018-06-29T11:59:35.338Z,5236.00
2018-06-29T12:01:28.671Z,5228.00
2018-06-29T12:02:28.589Z,5196.00
2018-06-29T12:04:21.913Z,5212.00
2018-06-29T12:05:21.842Z,5196.00
2018-06-29T12:07:15.206Z,5252.00
2018-06-29T12:08:15.090Z,5256.00
2018-06-29T12:10:08.389Z,5244.00
2018-06-29T12:11:08.341Z,5228.00
2018-06-29T12:13:01.650Z,5188.00
2018-06-29T12:14:01.582Z,5208.00
2018-06-29T12:15:54.879Z,5164.00
2018-06-29T12:16:54.826Z,5156.00
2018-06-29T12:18:48.142Z,5164.00
2018-06-29T12:19:48.070Z,5156.00
2018-06-29T12:21:41.984Z,5156.00
2018-06-29T12:22:41.318Z,5160.00
2018-06-29T12:24:34.619Z,5104.00
2018-06-29T12:25:34.617Z,5064.00
2018-06-29T12:27:27.979Z,5092.00
2018-06-29T12:28:27.809Z,5072.00
2018-06-29T12:30:21.104Z,5012.00
2018-06-29T12:31:21.054Z,4968.00
2018-06-29T12:33:14.368Z,5052.00
2018-06-29T12:34:14.299Z,5040.00
2018-06-29T12:36:07.692Z,5044.00
2018-06-29T12:37:07.541Z,5020.00
2018-06-29T12:39:00.858Z,5064.00
2018-06-29T12:40:00.785Z,5008.00
2018-06-29T12:41:54.199Z,5012.00
2018-06-29T12:42:54.030Z,4956.00
2018-06-29T12:44:47.324Z,4948.00
2018-06-29T12:45:47.271Z,4944.00
2018-06-29T12:47:40.581Z,4900.00
2018-06-29T12:48:40.506Z,4828.00
2018-06-29T12:50:33.806Z,4844.00
2018-06-29T12:51:33.758Z,4872.00
2018-06-29T12:53:27.075Z,4848.00
2018-06-29T12:54:27.000Z,4884.00
2018-06-29T12:56:20.295Z,4816.00
2018-06-29T12:57:20.296Z,4812.00
2018-06-29T12:59:13.561Z,4812.00
2018-06-29T13:00:13.487Z,4784.00
2018-06-29T13:02:06.880Z,4744.00
2018-06-29T13:03:06.732Z,4748.00
2018-06-29T13:05:00.057Z,4712.00
2018-06-29T13:05:59.975Z,4700.00
2018-06-29T13:07:53.370Z,4740.00
2018-06-29T13:08:53.303Z,4696.00
2018-06-29T13:10:46.595Z,4680.00
2018-06-29T13:11:46.544Z,4680.00
2018-06-29T13:13:39.956Z,4672.00
2018-06-29T13:14:39.791Z,4680.00
2018-06-29T13:16:33.181Z,4636.00
2018-06-29T13:17:33.033Z,4596.00
2018-06-29T13:19:26.346Z,4588.00
2018-06-29T13:20:26.274Z,4572.00
2018-06-29T13:22:19.571Z,4544.00
2018-06-29T13:23:19.519Z,4548.00
2018-06-29T13:25:12.860Z,4524.00
2018-06-29T13:26:12.778Z,4492.00
2018-06-29T13:28:06.086Z,4508.00
2018-06-29T13:29:06.002Z,4480.00
2018-06-29T13:30:59.351Z,4472.00
2018-06-29T13:31:59.297Z,4460.00
2018-06-29T13:33:52.690Z,4480.00
2018-06-29T13:34:52.543Z,4476.00
2018-06-29T13:36:45.840Z,4488.00
2018-06-29T13:37:45.785Z,4456.00
2018-06-29T13:39:39.104Z,4440.00
2018-06-29T13:40:39.030Z,4444.00
2018-06-29T13:42:32.328Z,4440.00
2018-06-29T13:43:32.276Z,4432.00
2018-06-29T13:45:25.593Z,4416.00
2018-06-29T13:46:25.522Z,4404.00
2018-06-29T13:48:18.810Z,4388.00
2018-06-29T13:49:18.758Z,4380.00
2018-06-29T13:51:12.073Z,4368.00
2018-06-29T13:52:12.036Z,4500.00
2018-06-29T13:54:05.416Z,4328.00
2018-06-29T13:55:05.298Z,4328.00
2018-06-29T13:56:58.692Z,4744.00
2018-06-29T13:57:58.541Z,4776.00
2018-06-29T13:59:51.858Z,4224.00
2018-06-29T14:00:51.787Z,4464.00
2018-06-29T14:02:45.103Z,4208.00
2018-06-29T14:03:45.030Z,4264.00
2018-06-29T14:05:38.328Z,4208.00
2018-06-29T14:06:38.274Z,4256.00
2018-06-29T14:08:31.594Z,4252.00
2018-06-29T14:09:31.524Z,4260.00
2018-06-29T14:11:24.820Z,4264.00
2018-06-29T14:12:24.768Z,4248.00
2018-06-29T14:14:18.182Z,4236.00
2018-06-29T14:15:18.011Z,4224.00
2018-06-29T14:17:11.381Z,4204.00
2018-06-29T14:18:11.308Z,4188.00
2018-06-29T14:20:04.605Z,4184.00
2018-06-29T14:21:04.555Z,4172.00
2018-06-29T14:22:57.871Z,4232.00
2018-06-29T14:23:57.800Z,4160.00
2018-06-29T14:25:51.095Z,4160.00
2018-06-29T14:26:51.044Z,4164.00
2018-06-29T14:28:44.460Z,4148.00
2018-06-29T14:29:44.288Z,4136.00
2018-06-29T14:31:37.585Z,4136.00
2018-06-29T14:32:37.530Z,4112.00
2018-06-29T14:34:31.465Z,4092.00
2018-06-29T14:35:30.779Z,4092.00
2018-06-29T14:37:24.097Z,4100.00
2018-06-29T14:38:24.023Z,4084.00
2018-06-29T14:40:17.352Z,4080.00
2018-06-29T14:41:17.297Z,4036.00
2018-06-29T14:43:10.613Z,4040.00
2018-06-29T14:44:10.543Z,4032.00
2018-06-29T14:46:03.937Z,4024.00
2018-06-29T14:47:03.788Z,4012.00
2018-06-29T14:48:57.208Z,4000.00
2018-06-29T14:49:57.033Z,3992.00
2018-06-29T14:51:50.330Z,3968.00
2018-06-29T14:52:50.277Z,3948.00
2018-06-29T14:54:43.598Z,3952.00
2018-06-29T14:55:43.524Z,3920.00
2018-06-29T14:57:36.841Z,3912.00
2018-06-29T14:58:36.774Z,3912.00
2018-06-29T15:00:30.070Z,3880.00
2018-06-29T15:01:30.016Z,3884.00
2018-06-29T15:03:23.430Z,3868.00
2018-06-29T15:04:23.296Z,3832.00
2018-06-29T15:06:17.197Z,3832.00
2018-06-29T15:07:16.543Z,3856.00
2018-06-29T15:09:09.958Z,3848.00
2018-06-29T15:10:09.797Z,3820.00
2018-06-29T15:12:03.106Z,3844.00
2018-06-29T15:13:03.036Z,3836.00
2018-06-29T15:14:56.333Z,3832.00
2018-06-29T15:15:56.303Z,3828.00
2018-06-29T15:17:49.605Z,3812.00
2018-06-29T15:18:49.533Z,3808.00
2018-06-29T15:20:42.832Z,3796.00
2018-06-29T15:21:42.841Z,3784.00
2018-06-29T15:23:36.096Z,3776.00
2018-06-29T15:24:36.064Z,3788.00
2018-06-29T15:26:29.325Z,3768.00
2018-06-29T15:27:29.289Z,3760.00
2018-06-29T15:29:22.586Z,3760.00
2018-06-29T15:30:22.516Z,3696.00
2018-06-29T15:32:15.833Z,3724.00
2018-06-29T15:33:15.762Z,3728.00
2018-06-29T15:35:09.061Z,3716.00
2018-06-29T15:36:09.008Z,3732.00
2018-06-29T15:38:02.371Z,3736.00
2018-06-29T15:39:02.302Z,3744.00
2018-06-29T15:40:55.600Z,3752.00
2018-06-29T15:41:55.546Z,3752.00
2018-06-29T15:43:48.863Z,3732.00
2018-06-29T15:44:48.791Z,3744.00
2018-06-29T15:46:42.089Z,3732.00
2018-06-29T15:47:42.038Z,3724.00
2018-06-29T15:49:35.369Z,3720.00
2018-06-29T15:50:35.298Z,3716.00
2018-06-29T15:52:28.619Z,3696.00
2018-06-29T15:53:28.542Z,3676.00
2018-06-29T15:55:21.895Z,3644.00
2018-06-29T15:56:21.789Z,3660.00
2018-06-29T15:58:15.095Z,3624.00
2018-06-29T15:59:15.025Z,3616.00
2018-06-29T16:01:08.324Z,3608.00
2018-06-29T16:02:08.274Z,3596.00
2018-06-29T16:04:01.590Z,3572.00
2018-06-29T16:05:01.518Z,3556.00
2018-06-29T16:06:54.978Z,3644.00
2018-06-29T16:07:54.764Z,3620.00
2018-06-29T16:09:48.079Z,3616.00
2018-06-29T16:10:48.009Z,3628.00
2018-06-29T16:12:41.353Z,3528.00
2018-06-29T16:13:41.297Z,3460.00
2018-06-29T16:15:34.766Z,3444.00
2018-06-29T16:16:34.557Z,3428.00
2018-06-29T16:18:28.872Z,3428.00
2018-06-29T16:19:28.804Z,3400.00
2018-06-29T16:21:22.099Z,3372.00
2018-06-29T16:22:22.047Z,3392.00
2018-06-29T16:24:15.366Z,3360.00
2018-06-29T16:25:15.294Z,3332.00
2018-06-29T16:27:08.596Z,3308.00
2018-06-29T16:28:08.539Z,3292.00
2018-06-29T16:30:01.857Z,3280.00
2018-06-29T16:31:01.787Z,3268.00
2018-06-29T16:32:55.090Z,3248.00
2018-06-29T16:33:55.035Z,3244.00
2018-06-29T16:35:49.455Z,3208.00
2018-06-29T16:36:49.293Z,3188.00
2018-06-29T16:38:42.611Z,3148.00
2018-06-29T16:39:42.534Z,3148.00
2018-06-29T16:41:35.842Z,3124.00
2018-06-29T16:42:35.821Z,3104.00
2018-06-29T16:44:29.101Z,3060.00
2018-06-29T16:45:29.030Z,3044.00
2018-06-29T16:47:22.348Z,3032.00
2018-06-29T16:48:22.301Z,3008.00
2018-06-29T16:50:15.617Z,2976.00
2018-06-29T16:51:15.543Z,2964.00
2018-06-29T16:53:08.838Z,2932.00
2018-06-29T16:54:08.787Z,2920.00
2018-06-29T16:56:03.200Z,2896.00
2018-06-29T16:57:03.031Z,2884.00
2018-06-29T16:58:57.333Z,2864.00
2018-06-29T16:59:57.276Z,2828.00
2018-06-29T17:01:50.593Z,2816.00
2018-06-29T17:02:50.520Z,2784.00
2018-06-29T17:04:43.851Z,2756.00
2018-06-29T17:05:43.782Z,2740.00
2018-06-29T17:07:37.062Z,2720.00
2018-06-29T17:08:37.010Z,2704.00
2018-06-29T17:10:30.371Z,2660.00
2018-06-29T17:11:30.294Z,2632.00
2018-06-29T17:13:23.591Z,2612.00
2018-06-29T17:14:23.531Z,2600.00
2018-06-29T17:16:16.854Z,2564.00
2018-06-29T17:17:16.781Z,2552.00
2018-06-29T17:19:10.084Z,2512.00
2018-06-29T17:20:10.025Z,2516.00
2018-06-29T17:22:03.438Z,2464.00
2018-06-29T17:23:03.266Z,2440.00
2018-06-29T17:24:56.624Z,2404.00
2018-06-29T17:25:56.511Z,2408.00
2018-06-29T17:27:49.810Z,2364.00
2018-06-29T17:28:49.836Z,2328.00
2018-06-29T17:30:43.069Z,2276.00
2018-06-29T17:31:43.009Z,2256.00
2018-06-29T17:33:36.409Z,2220.00
2018-06-29T17:34:36.301Z,2196.00
2018-06-29T17:36:29.614Z,2176.00
2018-06-29T17:37:29.543Z,2164.00
2018-06-29T17:39:22.838Z,2120.00
2018-06-29T17:40:22.783Z,2100.00
2018-06-29T17:42:16.097Z,2064.00
2018-06-29T17:43:16.028Z,2048.00
2018-06-29T17:45:09.322Z,2000.00